KFLP

Details ICAO KFLP
Name MARION CO RGNL
Region United States
Timezone America/Chicago (UTC-6.0)
Plans Departing 0
Arriving 5
Stats Elevation 719 ft / 219 m (AMSL)
Location 36.290895° -92.590253°
Runways 1
Magnetic Variation 0.400° E
Sunrise 2017-12-14 13:15:21 UTC / 2017-12-14 07:15:21 Local
Sunset 2017-12-14 22:57:47 UTC / 2017-12-14 16:57:47 Local
Advertisement - Login to hide

Runways

ID Width Length Bearing (true) Bearing (mag) Surface Threshold Offset Overrun Length
04 75 ft / 23 m 4,998 ft / 1,524 m 51.08° 50.68° Asphalt 900 ft / 274 m 200 ft / 61 m
22 75 ft / 23 m 4,998 ft / 1,524 m 231.09° 230.69° Asphalt 0 ft / 0 m 350 ft / 107 m

Map

Weather


0- 5 10 15 20 25 30 35+ Temperature / ° C

Clouds and Precipitation
Forecast for 2017-12-14 18:00 UTC. Updated 2 hours ago

Ground ~20,000 ft ~40,000 ft Winds

METAR

KFLP 141656Z AUTO VRB04KT 10SM OVC036 05/M04 A3010 RMK AO2 SLP193 T00501039

TAF

Not found

Frequencies

Recorded 132.07 MHz AWOS 3
Unicom 123.00 MHz CTAF/UNICOM
Warning: Do not use this data for real-world aviation or navigation. No guarantee of current accuracy is given.